createdAt,value
2022-09-16T00:00:52.499Z,2.35
2022-09-16T00:03:19.963Z,3.10
2022-09-16T00:05:49.546Z,2.50
2022-09-16T00:08:17.143Z,2.20
2022-09-16T00:10:44.355Z,3.25
2022-09-16T00:13:12.686Z,3.03
2022-09-16T00:15:46.615Z,5.30
2022-09-16T00:18:14.866Z,2.03
2022-09-16T00:20:50.427Z,2.28
2022-09-16T00:25:52.936Z,2.70
2022-09-16T00:28:21.828Z,3.70
2022-09-16T00:30:49.825Z,2.33
2022-09-16T00:33:17.347Z,2.05
2022-09-16T00:35:44.125Z,2.20
2022-09-16T00:38:11.361Z,3.47
2022-09-16T00:40:46.233Z,3.95
2022-09-16T00:43:18.402Z,2.20
2022-09-16T00:45:51.370Z,2.88
2022-09-16T00:48:22.772Z,3.20
2022-09-16T00:50:56.325Z,3.17
2022-09-16T00:53:30.109Z,2.50
2022-09-16T00:55:59.957Z,2.58
2022-09-16T00:58:37.155Z,2.92
2022-09-16T01:01:05.846Z,3.85
2022-09-16T01:03:43.118Z,4.15
2022-09-16T01:06:12.243Z,3.33
2022-09-16T01:08:40.409Z,3.13
2022-09-16T01:11:10.543Z,3.47
2022-09-16T01:13:38.769Z,3.05
2022-09-16T01:16:26.446Z,2.58
2022-09-16T01:19:14.100Z,3.05
2022-09-16T01:21:53.402Z,3.47
2022-09-16T01:25:14.023Z,3.13
2022-09-16T01:28:11.195Z,2.30
2022-09-16T01:30:46.730Z,3.47
2022-09-16T01:33:25.643Z,2.78
2022-09-16T01:36:15.746Z,2.42
2022-09-16T01:39:01.484Z,3.28
2022-09-16T01:42:00.346Z,2.90
2022-09-16T01:44:48.420Z,2.10
2022-09-16T01:47:22.776Z,3.63
2022-09-16T01:50:01.062Z,3.50
2022-09-16T01:52:39.916Z,3.67
2022-09-16T01:55:26.485Z,3.50
2022-09-16T01:57:59.736Z,1.90
2022-09-16T02:00:26.614Z,2.70
2022-09-16T02:03:07.632Z,2.63
2022-09-16T02:05:40.103Z,3.67
2022-09-16T02:08:11.338Z,2.08
2022-09-16T02:10:50.370Z,1.85
2022-09-16T02:13:29.556Z,3.15
2022-09-16T02:16:02.012Z,2.83
2022-09-16T02:18:34.136Z,2.00
2022-09-16T02:21:04.618Z,2.40
2022-09-16T02:23:51.271Z,2.75
2022-09-16T02:26:23.332Z,1.92
2022-09-16T02:28:52.247Z,1.95
2022-09-16T02:31:24.554Z,2.65
2022-09-16T02:33:59.760Z,2.13
2022-09-16T02:36:29.950Z,2.92
2022-09-16T02:39:09.367Z,2.13
2022-09-16T02:41:38.712Z,1.90
2022-09-16T02:44:05.710Z,2.17
2022-09-16T02:46:58.709Z,2.70
2022-09-16T02:49:44.241Z,3.00
2022-09-16T02:52:18.049Z,2.08
2022-09-16T02:55:00.926Z,2.67
2022-09-16T02:57:29.822Z,2.78
2022-09-16T02:59:56.869Z,2.30
2022-09-16T03:02:25.734Z,2.42
2022-09-16T03:04:52.777Z,2.10
2022-09-16T03:07:19.540Z,1.83
2022-09-16T03:09:49.813Z,2.65
2022-09-16T03:12:29.852Z,1.75
2022-09-16T03:15:03.617Z,1.73
2022-09-16T03:17:46.241Z,2.67
2022-09-16T03:20:22.581Z,1.70
2022-09-16T03:22:58.493Z,1.77
2022-09-16T03:25:34.400Z,2.65
2022-09-16T03:28:09.554Z,2.47
2022-09-16T03:30:44.571Z,2.03
2022-09-16T03:33:39.524Z,1.67
2022-09-16T03:36:09.211Z,2.42
2022-09-16T03:38:38.712Z,2.03
2022-09-16T03:41:07.989Z,1.67
2022-09-16T03:43:34.741Z,2.15
2022-09-16T03:46:01.585Z,2.40
2022-09-16T03:48:28.729Z,2.83
2022-09-16T03:50:55.630Z,1.88
2022-09-16T03:53:22.547Z,3.65
2022-09-16T03:55:50.352Z,2.35
2022-09-16T03:58:20.237Z,2.50
2022-09-16T04:00:53.932Z,2.03
2022-09-16T04:03:21.360Z,3.45
2022-09-16T04:05:56.352Z,2.15
2022-09-16T04:08:23.710Z,2.10
2022-09-16T04:10:57.921Z,1.60
2022-09-16T04:13:24.656Z,3.28
2022-09-16T04:15:52.042Z,1.95
2022-09-16T04:18:19.297Z,3.33
2022-09-16T04:20:46.238Z,2.03
2022-09-16T04:23:13.192Z,2.92
2022-09-16T04:25:41.021Z,1.90
2022-09-16T04:28:08.693Z,2.65
2022-09-16T04:30:37.046Z,2.38
2022-09-16T04:33:03.841Z,1.80
2022-09-16T04:35:30.961Z,2.45
2022-09-16T04:37:58.606Z,1.92
2022-09-16T04:40:25.955Z,2.13
2022-09-16T04:42:52.711Z,2.20
2022-09-16T04:45:20.483Z,2.38
2022-09-16T04:47:47.426Z,2.33
2022-09-16T04:50:15.521Z,2.45
2022-09-16T04:52:42.215Z,2.53
2022-09-16T04:55:09.350Z,5.88
2022-09-16T04:57:36.360Z,4.78
2022-09-16T05:00:04.301Z,2.92
2022-09-16T05:02:31.259Z,2.40
2022-09-16T05:04:58.123Z,3.22
2022-09-16T05:07:24.946Z,4.32
2022-09-16T05:09:52.038Z,4.85
2022-09-16T05:12:21.154Z,6.78
2022-09-16T05:14:49.875Z,5.35
2022-09-16T05:17:33.372Z,7.97
2022-09-16T05:20:05.766Z,6.40
2022-09-16T05:22:32.601Z,6.10
2022-09-16T05:24:59.638Z,6.28
2022-09-16T05:27:28.346Z,5.68
2022-09-16T05:29:55.288Z,9.57
2022-09-16T05:32:22.234Z,5.40
2022-09-16T05:34:50.637Z,4.72
2022-09-16T05:37:17.871Z,6.95
2022-09-16T05:39:45.066Z,6.22
2022-09-16T05:42:11.989Z,6.72
2022-09-16T05:44:38.968Z,5.10
2022-09-16T05:47:05.969Z,6.75
2022-09-16T05:49:33.423Z,5.05
2022-09-16T05:52:00.477Z,5.78
2022-09-16T05:54:27.256Z,6.50
2022-09-16T05:56:54.352Z,4.68
2022-09-16T05:59:21.115Z,9.93
2022-09-16T06:01:50.462Z,13.27
2022-09-16T06:04:17.823Z,9.90
2022-09-16T06:06:46.446Z,17.65
2022-09-16T06:09:20.401Z,16.67
2022-09-16T06:11:49.369Z,18.55
2022-09-16T06:14:18.244Z,20.95
2022-09-16T06:16:45.662Z,21.63
2022-09-16T06:19:15.625Z,22.20
2022-09-16T06:21:43.895Z,21.73
2022-09-16T06:24:12.132Z,18.90
2022-09-16T06:26:41.317Z,19.75
2022-09-16T06:29:09.325Z,20.50
2022-09-16T06:31:38.125Z,18.88
2022-09-16T06:34:08.099Z,18.17
2022-09-16T06:36:40.392Z,17.13
2022-09-16T06:39:12.165Z,15.30
2022-09-16T06:41:40.681Z,15.98
2022-09-16T06:44:08.944Z,14.93
2022-09-16T06:46:36.699Z,15.80
2022-09-16T06:49:06.183Z,13.70
2022-09-16T06:51:34.350Z,11.88
2022-09-16T06:54:06.591Z,11.50
2022-09-16T06:56:40.699Z,11.88
2022-09-16T06:59:14.374Z,9.48
2022-09-16T07:01:41.769Z,8.40
2022-09-16T07:04:13.635Z,9.07
2022-09-16T07:09:29.589Z,5.97
2022-09-16T07:11:59.379Z,5.88
2022-09-16T07:14:28.670Z,6.18
2022-09-16T07:16:57.657Z,8.35
2022-09-16T07:19:26.112Z,8.23
2022-09-16T07:21:52.994Z,5.70
2022-09-16T07:24:24.604Z,6.57
2022-09-16T07:26:53.206Z,9.32
2022-09-16T07:29:21.077Z,7.03
2022-09-16T07:31:48.347Z,7.68
2022-09-16T07:34:15.056Z,8.50
2022-09-16T07:36:48.115Z,6.78
2022-09-16T07:39:19.430Z,6.68
2022-09-16T07:41:48.658Z,5.20
2022-09-16T07:44:17.480Z,7.18
2022-09-16T07:46:44.618Z,5.95
2022-09-16T07:49:13.741Z,6.68
2022-09-16T07:51:42.237Z,4.90
2022-09-16T07:54:14.977Z,5.53
2022-09-16T07:56:43.273Z,6.30
2022-09-16T07:59:18.491Z,5.60
2022-09-16T08:01:46.243Z,6.40
2022-09-16T08:04:13.820Z,5.70
2022-09-16T08:06:43.997Z,4.93
2022-09-16T08:09:37.182Z,6.47
2022-09-16T08:12:01.858Z,6.55
2022-09-16T08:14:37.405Z,6.13
2022-09-16T08:17:04.912Z,4.15
2022-09-16T08:19:43.178Z,4.57
2022-09-16T08:22:11.958Z,6.63
2022-09-16T08:24:38.896Z,9.25
2022-09-16T08:27:11.307Z,4.88
2022-09-16T08:29:38.763Z,4.57
2022-09-16T08:32:06.298Z,4.18
2022-09-16T08:34:33.326Z,9.38
2022-09-16T08:37:00.156Z,5.75
2022-09-16T08:39:27.026Z,6.25
2022-09-16T08:42:20.876Z,5.57
2022-09-16T08:45:10.044Z,11.98
2022-09-16T08:48:11.198Z,7.03
2022-09-16T08:50:43.026Z,8.82
2022-09-16T08:53:34.460Z,11.07
2022-09-16T08:56:04.949Z,7.15
2022-09-16T08:58:40.320Z,8.68
2022-09-16T09:01:24.858Z,7.57
2022-09-16T09:03:56.977Z,7.85
2022-09-16T09:07:01.391Z,12.05
2022-09-16T09:09:42.851Z,8.73
2022-09-16T09:12:16.976Z,14.15
2022-09-16T09:15:11.920Z,36.47
2022-09-16T09:17:48.553Z,86.75
2022-09-16T09:20:25.340Z,79.10
2022-09-16T09:23:18.027Z,64.50
2022-09-16T09:26:16.806Z,51.53
2022-09-16T09:28:52.631Z,38.55
2022-09-16T09:31:28.526Z,31.70
2022-09-16T09:34:23.649Z,28.15
2022-09-16T09:37:12.094Z,25.98
2022-09-16T09:39:56.276Z,25.10
2022-09-16T09:42:31.661Z,19.48
2022-09-16T09:45:04.499Z,17.25
2022-09-16T09:47:59.402Z,15.65
2022-09-16T09:50:39.342Z,14.65
2022-09-16T09:53:12.667Z,13.05
2022-09-16T09:55:42.096Z,16.15
2022-09-16T09:58:17.791Z,38.28
2022-09-16T10:00:45.511Z,50.42
2022-09-16T10:03:21.579Z,65.45
2022-09-16T10:05:49.301Z,61.33
2022-09-16T10:08:36.986Z,55.33
2022-09-16T10:11:25.571Z,47.75
2022-09-16T10:13:58.759Z,43.17
2022-09-16T10:16:34.442Z,36.35
2022-09-16T10:21:48.466Z,27.83
2022-09-16T10:24:32.675Z,25.27
2022-09-16T10:27:01.132Z,20.25
2022-09-16T10:29:28.952Z,20.75
2022-09-16T10:31:58.536Z,18.75
2022-09-16T10:34:31.471Z,18.45
2022-09-16T10:37:13.262Z,14.27
2022-09-16T10:39:43.482Z,14.18
2022-09-16T10:42:22.714Z,19.65
2022-09-16T10:44:52.889Z,29.35
2022-09-16T10:47:26.125Z,52.92
2022-09-16T10:49:57.002Z,55.50
2022-09-16T10:52:40.872Z,46.47
2022-09-16T10:55:27.798Z,41.75
2022-09-16T10:58:07.207Z,35.13
2022-09-16T11:01:01.576Z,31.20
2022-09-16T11:04:08.453Z,26.98
2022-09-16T11:06:52.870Z,23.08
2022-09-16T11:09:48.495Z,19.05
2022-09-16T11:12:53.163Z,16.53
2022-09-16T11:15:44.742Z,12.30
2022-09-16T11:18:40.476Z,24.17
2022-09-16T11:21:44.628Z,30.67
2022-09-16T11:24:39.476Z,29.23
2022-09-16T11:27:36.950Z,28.40
2022-09-16T11:30:22.451Z,25.38
2022-09-16T11:33:04.678Z,21.48
2022-09-16T11:35:59.671Z,19.95
2022-09-16T11:38:46.054Z,17.05
2022-09-16T11:41:42.431Z,16.55
2022-09-16T11:44:39.656Z,15.25
2022-09-16T11:47:19.195Z,13.13
2022-09-16T11:50:08.640Z,13.18
2022-09-16T11:53:04.173Z,11.68
2022-09-16T11:55:50.704Z,11.27
2022-09-16T11:58:47.246Z,21.10
2022-09-16T12:01:32.324Z,34.50
2022-09-16T12:04:12.425Z,53.97
2022-09-16T12:07:04.746Z,47.10
2022-09-16T12:09:54.754Z,47.33
2022-09-16T12:12:28.857Z,42.67
2022-09-16T12:15:17.697Z,38.85
2022-09-16T12:17:53.656Z,34.95
2022-09-16T12:20:28.181Z,29.98
2022-09-16T12:23:20.794Z,31.85
2022-09-16T12:26:18.479Z,44.65
2022-09-16T12:28:55.068Z,55.28
2022-09-16T12:31:35.843Z,75.68
2022-09-16T12:34:10.231Z,69.95
2022-09-16T12:36:41.309Z,62.88
2022-09-16T12:39:11.304Z,59.30
2022-09-16T12:41:47.084Z,51.75
2022-09-16T12:44:35.766Z,45.10
2022-09-16T12:47:20.789Z,42.33
2022-09-16T12:49:50.236Z,33.55
2022-09-16T12:52:30.692Z,32.25
2022-09-16T12:55:08.776Z,29.77
2022-09-16T12:58:08.802Z,27.60
2022-09-16T13:01:21.082Z,23.85
2022-09-16T13:04:11.240Z,21.38
2022-09-16T13:06:45.251Z,21.70
2022-09-16T13:09:23.172Z,21.20
2022-09-16T13:12:40.796Z,19.55
2022-09-16T13:15:25.960Z,21.85
2022-09-16T13:17:53.504Z,17.77
2022-09-16T13:20:22.935Z,18.13
2022-09-16T13:23:04.139Z,16.92
2022-09-16T13:26:00.507Z,47.05
2022-09-16T13:28:37.028Z,46.65
2022-09-16T13:31:14.049Z,48.17
2022-09-16T13:33:49.147Z,53.35
2022-09-16T13:36:26.345Z,54.58
2022-09-16T13:38:55.394Z,64.00
2022-09-16T13:41:41.633Z,64.88
2022-09-16T13:44:37.506Z,60.90
2022-09-16T13:47:10.506Z,57.83
2022-09-16T13:49:52.003Z,55.83
2022-09-16T13:52:36.634Z,54.72
2022-09-16T13:55:20.227Z,48.58
2022-09-16T13:58:02.200Z,49.40
2022-09-16T14:00:54.497Z,49.65
2022-09-16T14:03:39.938Z,48.65
2022-09-16T14:06:45.048Z,45.67
2022-09-16T14:09:20.726Z,46.85
2022-09-16T14:17:41.142Z,42.58
2022-09-16T14:20:16.461Z,43.50
2022-09-16T14:22:47.908Z,41.83
2022-09-16T14:25:35.579Z,39.33
2022-09-16T14:28:22.633Z,43.70
2022-09-16T14:31:02.026Z,50.63
2022-09-16T14:33:31.524Z,72.85
2022-09-16T14:36:00.531Z,85.85
2022-09-16T14:41:38.251Z,66.63
2022-09-16T14:44:32.490Z,58.63
2022-09-16T14:47:09.196Z,54.38
2022-09-16T14:49:40.999Z,47.33
2022-09-16T14:52:20.656Z,45.75
2022-09-16T14:54:47.730Z,45.25
2022-09-16T14:57:23.962Z,41.83
2022-09-16T14:59:55.418Z,39.80
2022-09-16T15:02:28.588Z,39.60
2022-09-16T15:05:03.681Z,44.00
2022-09-16T15:07:34.526Z,41.58
2022-09-16T15:10:01.205Z,43.03
2022-09-16T15:12:36.008Z,41.13
2022-09-16T15:15:19.922Z,40.63
2022-09-16T15:18:07.407Z,42.55
2022-09-16T15:20:45.552Z,42.55
2022-09-16T15:23:24.149Z,40.05
2022-09-16T15:26:10.670Z,39.42
2022-09-16T15:28:52.871Z,36.92
2022-09-16T15:31:39.749Z,38.05
2022-09-16T15:34:19.089Z,37.38
2022-09-16T15:36:47.394Z,36.65
2022-09-16T15:39:34.505Z,37.28
2022-09-16T15:42:10.323Z,36.33
2022-09-16T15:44:37.827Z,33.85
2022-09-16T15:47:05.095Z,34.25
2022-09-16T15:49:39.233Z,31.48
2022-09-16T15:52:11.938Z,30.17
2022-09-16T15:54:49.859Z,31.90
2022-09-16T15:57:40.044Z,29.65
2022-09-16T16:00:13.509Z,29.20
2022-09-16T16:02:46.678Z,28.13
2022-09-16T16:05:23.054Z,26.58
2022-09-16T16:07:54.959Z,25.95
2022-09-16T16:10:25.906Z,24.50
2022-09-16T16:12:54.908Z,26.33
2022-09-16T16:15:25.468Z,26.08
2022-09-16T16:17:55.233Z,26.80
2022-09-16T16:20:22.747Z,24.80
2022-09-16T16:22:49.722Z,23.58
2022-09-16T16:25:17.006Z,25.88
2022-09-16T16:27:44.637Z,27.02
2022-09-16T16:30:12.294Z,22.23
2022-09-16T16:32:39.942Z,23.33
2022-09-16T16:35:08.859Z,21.98
2022-09-16T16:37:51.959Z,21.58
2022-09-16T16:40:19.464Z,22.65
2022-09-16T16:42:46.244Z,22.63
2022-09-16T16:45:14.719Z,21.25
2022-09-16T16:47:42.295Z,20.27
2022-09-16T16:50:09.809Z,20.80
2022-09-16T16:52:37.077Z,19.20
2022-09-16T16:55:04.197Z,20.63
2022-09-16T16:57:30.875Z,19.67
2022-09-16T16:59:57.653Z,20.55
2022-09-16T17:02:24.688Z,20.75
2022-09-16T17:04:52.092Z,21.13
2022-09-16T17:07:27.320Z,20.17
2022-09-16T17:09:57.577Z,18.38
2022-09-16T17:12:24.642Z,18.77
2022-09-16T17:14:51.641Z,18.35
2022-09-16T17:17:18.822Z,16.00
2022-09-16T17:19:45.482Z,18.38
2022-09-16T17:22:12.174Z,17.00
2022-09-16T17:24:38.852Z,17.60
2022-09-16T17:27:05.703Z,15.50
2022-09-16T17:29:32.569Z,16.83
2022-09-16T17:32:02.444Z,16.30
2022-09-16T17:34:33.576Z,16.30
2022-09-16T17:37:00.662Z,17.38
2022-09-16T17:39:27.448Z,20.60
2022-09-16T17:41:56.650Z,16.88
2022-09-16T17:44:24.020Z,16.90
2022-09-16T17:46:50.886Z,14.77
2022-09-16T17:49:21.337Z,19.15
2022-09-16T17:51:48.764Z,16.60
2022-09-16T17:54:16.239Z,17.20
2022-09-16T17:56:43.967Z,18.42
2022-09-16T17:59:12.179Z,15.88
2022-09-16T18:01:39.677Z,17.80
2022-09-16T18:04:07.045Z,15.82
2022-09-16T18:06:40.635Z,26.02
2022-09-16T18:09:07.813Z,13.88
2022-09-16T18:11:35.989Z,17.65
2022-09-16T18:14:05.838Z,24.70
2022-09-16T18:16:33.244Z,15.85
2022-09-16T18:19:01.734Z,15.23
2022-09-16T18:21:29.201Z,12.70
2022-09-16T18:23:59.266Z,14.73
2022-09-16T18:26:26.971Z,17.00
2022-09-16T18:29:11.555Z,17.92
2022-09-16T18:31:46.337Z,16.45
2022-09-16T18:34:14.378Z,18.30
2022-09-16T18:36:44.471Z,18.38
2022-09-16T18:39:16.950Z,21.15
2022-09-16T18:41:45.604Z,21.30
2022-09-16T18:44:16.797Z,17.02
2022-09-16T18:46:44.131Z,18.25
2022-09-16T18:49:13.045Z,15.70
2022-09-16T18:51:42.980Z,15.18
2022-09-16T18:54:14.545Z,21.15
2022-09-16T18:56:42.041Z,15.98
2022-09-16T18:59:23.114Z,14.57
2022-09-16T19:01:52.724Z,20.42
2022-09-16T19:04:24.905Z,15.55
2022-09-16T19:06:56.074Z,13.45
2022-09-16T19:09:24.183Z,16.13
2022-09-16T19:11:55.910Z,13.57
2022-09-16T19:14:25.044Z,17.48
2022-09-16T19:16:53.230Z,12.52
2022-09-16T19:19:21.329Z,13.98
2022-09-16T19:21:48.514Z,11.05
2022-09-16T19:24:20.505Z,14.32
2022-09-16T19:26:49.563Z,12.65
2022-09-16T19:29:17.246Z,13.57
2022-09-16T19:31:47.382Z,10.18
2022-09-16T19:34:15.936Z,11.55
2022-09-16T19:36:43.358Z,12.75
2022-09-16T19:39:12.654Z,10.85
2022-09-16T19:41:40.831Z,12.65
2022-09-16T19:44:12.400Z,9.02
2022-09-16T19:46:40.473Z,15.82
2022-09-16T19:49:08.324Z,11.80
2022-09-16T19:51:50.087Z,10.27
2022-09-16T19:54:18.048Z,11.77
2022-09-16T19:56:50.123Z,12.15
2022-09-16T19:59:21.901Z,12.10
2022-09-16T20:01:49.671Z,10.85
2022-09-16T20:04:19.868Z,9.85
2022-09-16T20:06:47.481Z,8.70
2022-09-16T20:09:14.200Z,9.60
2022-09-16T20:11:44.613Z,9.25
2022-09-16T20:14:21.729Z,13.35
2022-09-16T20:16:50.332Z,9.23
2022-09-16T20:19:19.840Z,9.90
2022-09-16T20:21:47.554Z,9.27
2022-09-16T20:24:18.194Z,8.77
2022-09-16T20:26:45.966Z,13.07
2022-09-16T20:29:12.818Z,8.05
2022-09-16T20:31:39.815Z,8.20
2022-09-16T20:34:08.108Z,10.80
2022-09-16T20:36:37.828Z,10.15
2022-09-16T20:39:05.979Z,9.27
2022-09-16T20:41:34.125Z,7.70
2022-09-16T20:44:01.207Z,8.23
2022-09-16T20:46:36.445Z,8.90
2022-09-16T20:49:06.475Z,11.88
2022-09-16T20:51:34.488Z,8.52
2022-09-16T20:54:08.437Z,11.07
2022-09-16T20:56:38.801Z,7.43
2022-09-16T20:59:07.659Z,8.20
2022-09-16T21:01:35.678Z,8.55
2022-09-16T21:04:05.672Z,7.28
2022-09-16T21:06:35.537Z,7.70
2022-09-16T21:09:05.412Z,7.93
2022-09-16T21:11:33.112Z,14.52
2022-09-16T21:14:02.365Z,10.13
2022-09-16T21:16:31.856Z,11.20
2022-09-16T21:19:00.493Z,10.10
2022-09-16T21:21:28.574Z,11.48
2022-09-16T21:23:57.619Z,14.10
2022-09-16T21:26:31.172Z,11.95
2022-09-16T21:29:08.683Z,12.82
2022-09-16T21:31:38.066Z,10.82
2022-09-16T21:34:17.863Z,12.23
2022-09-16T21:36:45.245Z,18.05
2022-09-16T21:39:13.809Z,6.82
2022-09-16T21:41:41.000Z,9.00
2022-09-16T21:44:07.797Z,12.93
2022-09-16T21:46:45.085Z,12.38
2022-09-16T21:49:22.810Z,11.40
2022-09-16T21:51:51.537Z,10.93
2022-09-16T21:54:20.853Z,11.02
2022-09-16T21:56:49.160Z,10.80
2022-09-16T21:59:16.910Z,8.57
2022-09-16T22:01:43.734Z,6.70
2022-09-16T22:04:19.657Z,8.70
2022-09-16T22:06:48.641Z,7.60
2022-09-16T22:09:18.303Z,7.00
2022-09-16T22:11:47.900Z,10.88
2022-09-16T22:14:14.760Z,10.60
2022-09-16T22:16:41.954Z,7.80
2022-09-16T22:19:11.594Z,7.78
2022-09-16T22:21:41.003Z,13.43
2022-09-16T22:24:08.499Z,13.68
2022-09-16T22:26:35.915Z,9.15
2022-09-16T22:29:03.621Z,10.90
2022-09-16T22:31:32.931Z,10.13
2022-09-16T22:34:01.880Z,9.95
2022-09-16T22:36:31.022Z,11.00
2022-09-16T22:39:01.065Z,10.60
2022-09-16T22:41:29.356Z,10.30
2022-09-16T22:43:56.486Z,8.05
2022-09-16T22:46:28.563Z,9.77
2022-09-16T22:48:56.664Z,8.13
2022-09-16T22:51:23.461Z,9.85
2022-09-16T22:53:50.825Z,11.48
2022-09-16T22:56:25.003Z,12.95
2022-09-16T22:58:53.706Z,8.70
2022-09-16T23:01:26.673Z,7.47
2022-09-16T23:03:56.323Z,7.35
2022-09-16T23:06:24.739Z,9.98
2022-09-16T23:08:52.524Z,7.72
2022-09-16T23:11:23.206Z,6.57
2022-09-16T23:13:53.624Z,7.30
2022-09-16T23:16:30.134Z,8.32
2022-09-16T23:18:59.949Z,8.63
2022-09-16T23:21:28.954Z,6.63
2022-09-16T23:24:00.948Z,9.48
2022-09-16T23:26:31.390Z,5.57
2022-09-16T23:29:07.830Z,5.65
2022-09-16T23:31:41.480Z,7.38
2022-09-16T23:34:21.334Z,10.00
2022-09-16T23:36:49.288Z,7.78
2022-09-16T23:39:16.911Z,7.18
2022-09-16T23:41:44.243Z,7.68
2022-09-16T23:44:13.697Z,8.25
2022-09-16T23:46:40.605Z,7.30
2022-09-16T23:49:07.396Z,7.25
2022-09-16T23:51:34.584Z,7.55
2022-09-16T23:54:01.435Z,6.32
2022-09-16T23:56:28.699Z,8.10
2022-09-16T23:58:59.141Z,6.65
